Thomaston, Connecticut
Current Conditions -  °F | °C
As of 5:45 AM on Saturday 25 Oct 2014 (Local Time) from KOXC Reporting Station
Clear Clear  
Wind Chill: 43°   Ceiling: Unl
Heat Index: 46°   Visibility: 10mi
Dew Point: 36°   Wind: 7mph
Humidity: 66%   Direction: 320°NW
Pressure: 29.83"   Gusts: NA
Location:  41.67°N, 73.07°W
Report Text: KOXC 250945Z 32006KT 10SM SKC 08/02 A2983
Loading
Personal Weather Stations






























Interactive Weather Map
Tropical Storm Tracking
New forecast layout! Learn more

10-Day Weather Forecast

Advertisements
Track Severe Weather on mobile